Hiller, PA (15444)

2:07 AM EST on February 13, 2016 (GMT -0500)
APRSWXNET | | Change Station
CLOSE
Current Station
Personal Weather Station
Location: Isabella, PA
Elevation: 1122 ft
Nearby Weather Stations
Active Advisory: Wind Chill Advisory Active Notice: Public Information Statement

Elev 1122 ft 39.93 °N, 79.95 °W | Updated 41 minutes ago

Overcast
Overcast
16 °F
Feels Like 4 °F
N
10
Wind Variable Wind from WNW
Gusts 18.0 mph

Today
High -- | Low -- °F
--% Chance of Precip.
Yesterday
High -- | Low -- °F
Precip. -- in
Pressure 30.08 in
Visibility 10.0 miles
Clouds Mostly Cloudy 2700 ft
Mostly Cloudy 6000 ft
Windchill 4 °F
Dew Point 9 °F
Humidity 73%
Rainfall in
Snow Depth Not available.
7:15 AM 5:52 PM
Waxing Crescent, 28% visible
METAR KAFJ 130655Z AUTO 27009G18KT 10SM BKN027 BKN060 M09/M15 A3008 RMK AO1
Pressure 30.08 in
Visibility 10.0 miles
Clouds Mostly Cloudy 2700 ft
Mostly Cloudy 6000 ft
Windchill 4 °F
Dew Point 9 °F
Humidity 73%
Rainfall in
Snow Depth Not available.
7:15 AM 5:52 PM
Waxing Crescent, 28% visible
METAR KAFJ 130655Z AUTO 27009G18KT 10SM BKN027 BKN060 M09/M15 A3008 RMK AO1

10-Day Weather Forecast

Almanac

Astronomy

Feb. 13, 2016 Rise Set
Actual Time
Civil Twilight
Nautical Twilight
Astronomical Twilight
Moon
Length of Visible Light
Length of Day
Tomorrow will be .
, % of the Moon is Illuminated

Today's Extremes

State Highs State Lows

Community

WunderPhotos

Upload Photos

1,892,519 photos uploaded!

WunderBlog® & News

Nearby

Air Quality

  Air Quality AQ Index Pollutant
Not available.

Snow Depth

Station Depth Elevation

Earthquake Activity

City Distance Mag. Time & Date
Minimum magnitude displayed is 2.5.

Coastal Water Temperatures

Place Temperature

Stations

Nearby Weather Stations

Station Location Temp. Windchill Dew Point Humidity Wind Precip. Elev Updated Type
                   

Watches & Warnings

Wind Chill Advisory
Issued: 1:08 AM EST Feb. 13, 2016 – National Weather Service

... Wind Chill Advisory remains in effect until 9 am EST Sunday...

* wind chill... as low as 15 below due to temperatures 4 below to
15 above zero... and winds west 10 to 20 mph with gusts up to
25 mph.

* Impacts... frost bite and hypothermia are possible if
precautions are not taken.